sensor_id;sensor_type;location;lat;lon;timestamp;P1;durP1;ratioP1;P2;durP2;ratioP2
43819;SDS011;67762;52.476;6.046;2023-04-25T00:01:47;1999.90;;;999.90;;
43819;SDS011;67762;52.476;6.046;2023-04-25T00:04:12;1999.90;;;999.90;;
43819;SDS011;67762;52.476;6.046;2023-04-25T00:06:38;1999.90;;;999.90;;
43819;SDS011;67762;52.476;6.046;2023-04-25T00:09:05;1999.90;;;999.90;;
43819;SDS011;67762;52.476;6.046;2023-04-25T00:11:34;1999.90;;;999.90;;
43819;SDS011;67762;52.476;6.046;2023-04-25T00:14:00;1999.90;;;999.90;;
43819;SDS011;67762;52.476;6.046;2023-04-25T00:16:28;1999.90;;;999.90;;
43819;SDS011;67762;52.476;6.046;2023-04-25T00:18:55;1999.90;;;999.90;;
43819;SDS011;67762;52.476;6.046;2023-04-25T00:21:22;1999.90;;;999.90;;
43819;SDS011;67762;52.476;6.046;2023-04-25T00:23:49;1999.90;;;999.90;;
43819;SDS011;67762;52.476;6.046;2023-04-25T00:26:15;1999.90;;;999.90;;
43819;SDS011;67762;52.476;6.046;2023-04-25T00:28:41;1999.90;;;999.90;;
43819;SDS011;67762;52.476;6.046;2023-04-25T00:31:06;1999.90;;;999.90;;
43819;SDS011;67762;52.476;6.046;2023-04-25T00:33:32;1999.90;;;999.90;;
43819;SDS011;67762;52.476;6.046;2023-04-25T00:35:58;1999.90;;;999.90;;
43819;SDS011;67762;52.476;6.046;2023-04-25T00:38:23;1999.90;;;999.90;;
43819;SDS011;67762;52.476;6.046;2023-04-25T00:40:49;1999.90;;;999.90;;
43819;SDS011;67762;52.476;6.046;2023-04-25T00:43:15;1999.90;;;999.90;;
43819;SDS011;67762;52.476;6.046;2023-04-25T00:45:40;1999.90;;;999.90;;
43819;SDS011;67762;52.476;6.046;2023-04-25T00:48:08;1999.90;;;999.90;;
43819;SDS011;67762;52.476;6.046;2023-04-25T00:50:34;1999.90;;;999.90;;
43819;SDS011;67762;52.476;6.046;2023-04-25T00:53:02;1999.90;;;999.90;;
43819;SDS011;67762;52.476;6.046;2023-04-25T00:55:28;1999.90;;;999.90;;
43819;SDS011;67762;52.476;6.046;2023-04-25T00:57:57;1999.90;;;999.90;;
43819;SDS011;67762;52.476;6.046;2023-04-25T01:00:23;1999.90;;;999.90;;
43819;SDS011;67762;52.476;6.046;2023-04-25T01:02:49;1999.90;;;999.90;;
43819;SDS011;67762;52.476;6.046;2023-04-25T01:05:15;1999.90;;;999.90;;
43819;SDS011;67762;52.476;6.046;2023-04-25T01:07:41;1999.90;;;999.90;;
43819;SDS011;67762;52.476;6.046;2023-04-25T01:10:07;1999.90;;;999.90;;
43819;SDS011;67762;52.476;6.046;2023-04-25T01:12:33;1999.90;;;999.90;;
43819;SDS011;67762;52.476;6.046;2023-04-25T01:14:59;1999.90;;;999.90;;
43819;SDS011;67762;52.476;6.046;2023-04-25T01:17:24;1999.90;;;999.90;;
43819;SDS011;67762;52.476;6.046;2023-04-25T01:19:50;1999.90;;;999.90;;
43819;SDS011;67762;52.476;6.046;2023-04-25T01:22:16;1999.90;;;999.90;;
43819;SDS011;67762;52.476;6.046;2023-04-25T01:24:43;1999.90;;;999.90;;
43819;SDS011;67762;52.476;6.046;2023-04-25T01:27:08;1999.90;;;999.90;;
43819;SDS011;67762;52.476;6.046;2023-04-25T01:29:36;1999.90;;;999.90;;
43819;SDS011;67762;52.476;6.046;2023-04-25T01:32:01;1999.90;;;999.90;;
43819;SDS011;67762;52.476;6.046;2023-04-25T01:34:28;1999.90;;;999.90;;
43819;SDS011;67762;52.476;6.046;2023-04-25T01:36:57;1999.90;;;999.90;;
43819;SDS011;67762;52.476;6.046;2023-04-25T01:39:25;1999.90;;;999.90;;
43819;SDS011;67762;52.476;6.046;2023-04-25T01:41:51;1999.90;;;999.90;;
43819;SDS011;67762;52.476;6.046;2023-04-25T01:44:16;1999.90;;;999.90;;
43819;SDS011;67762;52.476;6.046;2023-04-25T01:46:42;1999.90;;;999.90;;
43819;SDS011;67762;52.476;6.046;2023-04-25T01:49:10;1999.90;;;999.90;;
43819;SDS011;67762;52.476;6.046;2023-04-25T01:51:36;1999.90;;;999.90;;
43819;SDS011;67762;52.476;6.046;2023-04-25T01:54:02;1999.90;;;999.90;;
43819;SDS011;67762;52.476;6.046;2023-04-25T01:56:31;1999.90;;;999.90;;
43819;SDS011;67762;52.476;6.046;2023-04-25T01:58:58;1999.90;;;999.90;;
43819;SDS011;67762;52.476;6.046;2023-04-25T02:01:39;1999.90;;;999.90;;
43819;SDS011;67762;52.476;6.046;2023-04-25T02:04:20;1999.90;;;999.90;;
43819;SDS011;67762;52.476;6.046;2023-04-25T02:06:45;1999.90;;;999.90;;
43819;SDS011;67762;52.476;6.046;2023-04-25T02:09:11;1999.90;;;999.90;;
43819;SDS011;67762;52.476;6.046;2023-04-25T02:11:42;1999.90;;;999.90;;
43819;SDS011;67762;52.476;6.046;2023-04-25T02:14:28;1999.90;;;999.90;;
43819;SDS011;67762;52.476;6.046;2023-04-25T02:17:14;1999.90;;;999.90;;
43819;SDS011;67762;52.476;6.046;2023-04-25T02:19:39;1999.90;;;999.90;;
43819;SDS011;67762;52.476;6.046;2023-04-25T02:22:06;1999.90;;;999.90;;
43819;SDS011;67762;52.476;6.046;2023-04-25T02:24:32;1999.90;;;999.90;;
43819;SDS011;67762;52.476;6.046;2023-04-25T02:26:59;1999.90;;;999.90;;
43819;SDS011;67762;52.476;6.046;2023-04-25T02:29:24;1999.90;;;999.90;;
43819;SDS011;67762;52.476;6.046;2023-04-25T02:31:50;1999.90;;;999.90;;
43819;SDS011;67762;52.476;6.046;2023-04-25T02:34:16;1999.90;;;999.90;;
43819;SDS011;67762;52.476;6.046;2023-04-25T02:36:42;1999.90;;;999.90;;
43819;SDS011;67762;52.476;6.046;2023-04-25T02:39:07;1999.90;;;999.90;;
43819;SDS011;67762;52.476;6.046;2023-04-25T02:41:33;1999.90;;;999.90;;
43819;SDS011;67762;52.476;6.046;2023-04-25T02:43:59;1999.90;;;999.90;;
43819;SDS011;67762;52.476;6.046;2023-04-25T02:46:24;1999.90;;;999.90;;
43819;SDS011;67762;52.476;6.046;2023-04-25T02:48:50;1999.90;;;999.90;;
43819;SDS011;67762;52.476;6.046;2023-04-25T02:51:15;1999.90;;;999.90;;
43819;SDS011;67762;52.476;6.046;2023-04-25T02:53:42;1999.90;;;999.90;;
43819;SDS011;67762;52.476;6.046;2023-04-25T02:56:08;1999.90;;;999.90;;
43819;SDS011;67762;52.476;6.046;2023-04-25T02:58:33;1999.90;;;999.90;;
43819;SDS011;67762;52.476;6.046;2023-04-25T03:00:59;1999.90;;;999.90;;
43819;SDS011;67762;52.476;6.046;2023-04-25T03:03:25;1999.90;;;999.90;;
43819;SDS011;67762;52.476;6.046;2023-04-25T03:05:51;1999.90;;;999.90;;
43819;SDS011;67762;52.476;6.046;2023-04-25T03:08:21;1999.90;;;999.90;;
43819;SDS011;67762;52.476;6.046;2023-04-25T03:10:48;1999.90;;;999.90;;
43819;SDS011;67762;52.476;6.046;2023-04-25T03:13:15;1999.90;;;999.90;;
43819;SDS011;67762;52.476;6.046;2023-04-25T03:15:42;1999.90;;;999.90;;
43819;SDS011;67762;52.476;6.046;2023-04-25T03:18:08;1999.90;;;999.90;;
43819;SDS011;67762;52.476;6.046;2023-04-25T03:20:33;1999.90;;;999.90;;
43819;SDS011;67762;52.476;6.046;2023-04-25T03:22:59;1999.90;;;999.90;;
43819;SDS011;67762;52.476;6.046;2023-04-25T03:25:26;1999.90;;;999.90;;
43819;SDS011;67762;52.476;6.046;2023-04-25T03:27:52;1999.90;;;999.90;;
43819;SDS011;67762;52.476;6.046;2023-04-25T03:30:18;1999.90;;;999.90;;
43819;SDS011;67762;52.476;6.046;2023-04-25T03:32:44;1999.90;;;999.90;;
43819;SDS011;67762;52.476;6.046;2023-04-25T03:35:12;1999.90;;;999.90;;
43819;SDS011;67762;52.476;6.046;2023-04-25T03:37:38;1999.90;;;999.90;;
43819;SDS011;67762;52.476;6.046;2023-04-25T03:40:06;1999.90;;;999.90;;
43819;SDS011;67762;52.476;6.046;2023-04-25T03:42:52;1999.90;;;999.90;;
43819;SDS011;67762;52.476;6.046;2023-04-25T03:45:17;1999.90;;;999.90;;
43819;SDS011;67762;52.476;6.046;2023-04-25T03:47:43;1999.90;;;999.90;;
43819;SDS011;67762;52.476;6.046;2023-04-25T03:50:09;1999.90;;;999.90;;
43819;SDS011;67762;52.476;6.046;2023-04-25T03:52:35;1999.90;;;999.90;;
43819;SDS011;67762;52.476;6.046;2023-04-25T03:55:02;1999.90;;;999.90;;
43819;SDS011;67762;52.476;6.046;2023-04-25T03:57:27;1999.90;;;999.90;;
43819;SDS011;67762;52.476;6.046;2023-04-25T03:59:53;1999.90;;;999.90;;
43819;SDS011;67762;52.476;6.046;2023-04-25T04:02:19;1999.90;;;999.90;;
43819;SDS011;67762;52.476;6.046;2023-04-25T04:04:45;1999.90;;;999.90;;
43819;SDS011;67762;52.476;6.046;2023-04-25T04:07:11;1999.90;;;999.90;;
43819;SDS011;67762;52.476;6.046;2023-04-25T04:09:40;1999.90;;;999.90;;
43819;SDS011;67762;52.476;6.046;2023-04-25T04:12:09;1999.90;;;999.90;;
43819;SDS011;67762;52.476;6.046;2023-04-25T04:14:37;1999.90;;;999.90;;
43819;SDS011;67762;52.476;6.046;2023-04-25T04:17:03;1999.90;;;999.90;;
43819;SDS011;67762;52.476;6.046;2023-04-25T04:19:29;1999.90;;;999.90;;
43819;SDS011;67762;52.476;6.046;2023-04-25T04:22:03;1999.90;;;999.90;;
43819;SDS011;67762;52.476;6.046;2023-04-25T04:24:29;1999.90;;;999.90;;
43819;SDS011;67762;52.476;6.046;2023-04-25T04:26:59;1999.90;;;999.90;;
43819;SDS011;67762;52.476;6.046;2023-04-25T04:29:35;1999.90;;;999.90;;
43819;SDS011;67762;52.476;6.046;2023-04-25T04:32:31;1999.90;;;999.90;;
43819;SDS011;67762;52.476;6.046;2023-04-25T04:34:58;1999.90;;;999.90;;
43819;SDS011;67762;52.476;6.046;2023-04-25T04:37:25;1999.90;;;999.90;;
43819;SDS011;67762;52.476;6.046;2023-04-25T04:39:51;1999.90;;;999.90;;
43819;SDS011;67762;52.476;6.046;2023-04-25T04:42:43;1999.90;;;999.90;;
43819;SDS011;67762;52.476;6.046;2023-04-25T04:45:20;1999.90;;;999.90;;
43819;SDS011;67762;52.476;6.046;2023-04-25T04:48:05;1999.90;;;999.90;;
43819;SDS011;67762;52.476;6.046;2023-04-25T04:50:35;1999.90;;;999.90;;
43819;SDS011;67762;52.476;6.046;2023-04-25T04:53:22;1999.90;;;999.90;;
43819;SDS011;67762;52.476;6.046;2023-04-25T04:56:12;1999.90;;;999.90;;
43819;SDS011;67762;52.476;6.046;2023-04-25T04:58:44;1999.90;;;999.90;;
43819;SDS011;67762;52.476;6.046;2023-04-25T05:01:32;1999.90;;;999.90;;
43819;SDS011;67762;52.476;6.046;2023-04-25T05:04:18;1999.90;;;999.90;;
43819;SDS011;67762;52.476;6.046;2023-04-25T05:07:00;1999.90;;;999.90;;
43819;SDS011;67762;52.476;6.046;2023-04-25T05:09:45;1999.90;;;999.90;;
43819;SDS011;67762;52.476;6.046;2023-04-25T05:12:10;1999.90;;;999.90;;
43819;SDS011;67762;52.476;6.046;2023-04-25T05:14:54;1999.90;;;999.90;;
43819;SDS011;67762;52.476;6.046;2023-04-25T05:17:39;1999.90;;;999.90;;
43819;SDS011;67762;52.476;6.046;2023-04-25T05:20:22;1999.90;;;999.90;;
43819;SDS011;67762;52.476;6.046;2023-04-25T05:23:00;1999.90;;;999.90;;
43819;SDS011;67762;52.476;6.046;2023-04-25T05:25:49;1999.90;;;999.90;;
43819;SDS011;67762;52.476;6.046;2023-04-25T05:28:30;1999.90;;;999.90;;
43819;SDS011;67762;52.476;6.046;2023-04-25T05:31:14;1999.90;;;999.90;;
43819;SDS011;67762;52.476;6.046;2023-04-25T05:33:58;1999.90;;;999.90;;
43819;SDS011;67762;52.476;6.046;2023-04-25T05:36:34;1999.90;;;999.90;;
43819;SDS011;67762;52.476;6.046;2023-04-25T05:39:00;1999.90;;;999.90;;
43819;SDS011;67762;52.476;6.046;2023-04-25T05:41:45;1999.90;;;999.90;;
43819;SDS011;67762;52.476;6.046;2023-04-25T05:44:31;1999.90;;;999.90;;
43819;SDS011;67762;52.476;6.046;2023-04-25T05:47:35;1999.90;;;999.90;;
43819;SDS011;67762;52.476;6.046;2023-04-25T05:50:24;1999.90;;;999.90;;
43819;SDS011;67762;52.476;6.046;2023-04-25T05:53:10;1999.90;;;999.90;;
43819;SDS011;67762;52.476;6.046;2023-04-25T05:55:41;1999.90;;;999.90;;
43819;SDS011;67762;52.476;6.046;2023-04-25T05:58:18;1999.90;;;999.90;;
43819;SDS011;67762;52.476;6.046;2023-04-25T06:00:44;1999.90;;;999.90;;
43819;SDS011;67762;52.476;6.046;2023-04-25T06:03:10;1999.90;;;999.90;;
43819;SDS011;67762;52.476;6.046;2023-04-25T06:05:36;1999.90;;;999.90;;
43819;SDS011;67762;52.476;6.046;2023-04-25T06:08:01;1999.90;;;999.90;;
43819;SDS011;67762;52.476;6.046;2023-04-25T06:10:27;1999.90;;;999.90;;
43819;SDS011;67762;52.476;6.046;2023-04-25T06:12:53;1999.90;;;999.90;;
43819;SDS011;67762;52.476;6.046;2023-04-25T06:15:20;1999.90;;;999.90;;
43819;SDS011;67762;52.476;6.046;2023-04-25T06:17:45;1999.90;;;999.90;;
43819;SDS011;67762;52.476;6.046;2023-04-25T06:20:11;1999.90;;;999.90;;
43819;SDS011;67762;52.476;6.046;2023-04-25T06:22:39;1999.90;;;999.90;;
43819;SDS011;67762;52.476;6.046;2023-04-25T06:25:05;1999.90;;;999.90;;
43819;SDS011;67762;52.476;6.046;2023-04-25T06:27:33;1999.90;;;999.90;;
43819;SDS011;67762;52.476;6.046;2023-04-25T06:29:59;1999.90;;;999.90;;
43819;SDS011;67762;52.476;6.046;2023-04-25T06:32:25;1999.90;;;999.90;;
43819;SDS011;67762;52.476;6.046;2023-04-25T06:34:53;1999.90;;;999.90;;
43819;SDS011;67762;52.476;6.046;2023-04-25T06:37:18;1999.90;;;999.90;;
43819;SDS011;67762;52.476;6.046;2023-04-25T06:39:44;1999.90;;;999.90;;
43819;SDS011;67762;52.476;6.046;2023-04-25T06:42:10;1999.90;;;999.90;;
43819;SDS011;67762;52.476;6.046;2023-04-25T06:44:45;1999.90;;;999.90;;
43819;SDS011;67762;52.476;6.046;2023-04-25T06:47:12;1999.90;;;999.90;;
43819;SDS011;67762;52.476;6.046;2023-04-25T06:49:39;1999.90;;;999.90;;
43819;SDS011;67762;52.476;6.046;2023-04-25T06:52:04;1999.90;;;999.90;;
43819;SDS011;67762;52.476;6.046;2023-04-25T06:54:30;1999.90;;;999.90;;
43819;SDS011;67762;52.476;6.046;2023-04-25T06:57:04;1999.90;;;999.90;;
43819;SDS011;67762;52.476;6.046;2023-04-25T06:59:31;1999.90;;;999.90;;
43819;SDS011;67762;52.476;6.046;2023-04-25T07:01:58;1999.90;;;999.90;;
43819;SDS011;67762;52.476;6.046;2023-04-25T07:04:25;1999.90;;;999.90;;
43819;SDS011;67762;52.476;6.046;2023-04-25T07:06:54;1999.90;;;999.90;;
43819;SDS011;67762;52.476;6.046;2023-04-25T07:09:27;1999.90;;;999.90;;
43819;SDS011;67762;52.476;6.046;2023-04-25T07:11:53;1999.90;;;999.90;;
43819;SDS011;67762;52.476;6.046;2023-04-25T07:14:19;1999.90;;;999.90;;
43819;SDS011;67762;52.476;6.046;2023-04-25T07:16:45;1999.90;;;999.90;;
43819;SDS011;67762;52.476;6.046;2023-04-25T07:19:11;1999.90;;;999.90;;
43819;SDS011;67762;52.476;6.046;2023-04-25T07:21:37;1999.90;;;999.90;;
43819;SDS011;67762;52.476;6.046;2023-04-25T07:24:04;1999.90;;;999.90;;
43819;SDS011;67762;52.476;6.046;2023-04-25T07:26:34;1999.90;;;999.90;;
43819;SDS011;67762;52.476;6.046;2023-04-25T07:29:22;1999.90;;;999.90;;
43819;SDS011;67762;52.476;6.046;2023-04-25T07:31:48;1999.90;;;999.90;;
43819;SDS011;67762;52.476;6.046;2023-04-25T07:34:13;1999.90;;;999.90;;
43819;SDS011;67762;52.476;6.046;2023-04-25T07:36:39;1999.90;;;999.90;;
43819;SDS011;67762;52.476;6.046;2023-04-25T07:39:05;1999.90;;;999.90;;
43819;SDS011;67762;52.476;6.046;2023-04-25T07:41:32;1999.90;;;999.90;;
43819;SDS011;67762;52.476;6.046;2023-04-25T07:43:58;1999.90;;;999.90;;
43819;SDS011;67762;52.476;6.046;2023-04-25T07:46:24;1999.90;;;999.90;;
43819;SDS011;67762;52.476;6.046;2023-04-25T07:48:51;1999.90;;;999.90;;
43819;SDS011;67762;52.476;6.046;2023-04-25T07:51:17;1999.90;;;999.90;;
43819;SDS011;67762;52.476;6.046;2023-04-25T07:53:45;1999.90;;;999.90;;
43819;SDS011;67762;52.476;6.046;2023-04-25T07:56:14;1999.90;;;999.90;;
43819;SDS011;67762;52.476;6.046;2023-04-25T07:58:42;1999.90;;;999.90;;
43819;SDS011;67762;52.476;6.046;2023-04-25T08:01:10;1999.90;;;999.90;;
43819;SDS011;67762;52.476;6.046;2023-04-25T08:03:38;1999.90;;;999.90;;
43819;SDS011;67762;52.476;6.046;2023-04-25T08:06:09;1999.90;;;999.90;;
43819;SDS011;67762;52.476;6.046;2023-04-25T08:08:44;1999.90;;;999.90;;
43819;SDS011;67762;52.476;6.046;2023-04-25T08:11:13;1999.90;;;999.90;;
43819;SDS011;67762;52.476;6.046;2023-04-25T08:13:39;1999.90;;;999.90;;
43819;SDS011;67762;52.476;6.046;2023-04-25T08:16:05;1999.90;;;999.90;;
43819;SDS011;67762;52.476;6.046;2023-04-25T08:18:30;1999.90;;;999.90;;
43819;SDS011;67762;52.476;6.046;2023-04-25T08:20:56;1999.90;;;999.90;;
43819;SDS011;67762;52.476;6.046;2023-04-25T08:23:22;1999.90;;;999.90;;
43819;SDS011;67762;52.476;6.046;2023-04-25T08:25:59;1999.90;;;999.90;;
43819;SDS011;67762;52.476;6.046;2023-04-25T08:28:27;1999.90;;;999.90;;
43819;SDS011;67762;52.476;6.046;2023-04-25T08:30:53;1999.90;;;999.90;;
43819;SDS011;67762;52.476;6.046;2023-04-25T08:33:19;1999.90;;;999.90;;
43819;SDS011;67762;52.476;6.046;2023-04-25T08:35:57;1999.90;;;999.90;;
43819;SDS011;67762;52.476;6.046;2023-04-25T08:38:24;1999.90;;;999.90;;
43819;SDS011;67762;52.476;6.046;2023-04-25T08:40:50;1999.90;;;999.90;;
43819;SDS011;67762;52.476;6.046;2023-04-25T08:43:20;1999.90;;;999.90;;
43819;SDS011;67762;52.476;6.046;2023-04-25T08:45:46;1999.90;;;999.90;;
43819;SDS011;67762;52.476;6.046;2023-04-25T08:48:27;1999.90;;;999.90;;
43819;SDS011;67762;52.476;6.046;2023-04-25T08:50:54;1999.90;;;999.90;;
43819;SDS011;67762;52.476;6.046;2023-04-25T08:53:26;1999.90;;;999.90;;
43819;SDS011;67762;52.476;6.046;2023-04-25T08:55:58;93.22;;;88.00;;
43819;SDS011;67762;52.476;6.046;2023-04-25T08:58:25;578.65;;;324.58;;
43819;SDS011;67762;52.476;6.046;2023-04-25T09:00:51;151.45;;;142.20;;
43819;SDS011;67762;52.476;6.046;2023-04-25T09:03:20;231.23;;;215.98;;
43819;SDS011;67762;52.476;6.046;2023-04-25T09:05:47;110.75;;;104.47;;
43819;SDS011;67762;52.476;6.046;2023-04-25T09:08:14;586.88;;;332.27;;
43819;SDS011;67762;52.476;6.046;2023-04-25T09:10:40;543.15;;;291.02;;
43819;SDS011;67762;52.476;6.046;2023-04-25T09:13:07;1999.90;;;999.90;;
43819;SDS011;67762;52.476;6.046;2023-04-25T09:16:00;1999.90;;;999.90;;
43819;SDS011;67762;52.476;6.046;2023-04-25T09:18:37;1999.90;;;999.90;;
43819;SDS011;67762;52.476;6.046;2023-04-25T09:23:41;1999.90;;;999.90;;
43819;SDS011;67762;52.476;6.046;2023-04-25T09:26:10;1999.90;;;999.90;;
43819;SDS011;67762;52.476;6.046;2023-04-25T09:28:39;1999.90;;;999.90;;
43819;SDS011;67762;52.476;6.046;2023-04-25T09:31:05;1999.90;;;999.90;;
43819;SDS011;67762;52.476;6.046;2023-04-25T09:33:36;1999.90;;;999.90;;
43819;SDS011;67762;52.476;6.046;2023-04-25T09:38:50;1014.72;;;513.80;;
43819;SDS011;67762;52.476;6.046;2023-04-25T09:41:27;1509.00;;;758.50;;
43819;SDS011;67762;52.476;6.046;2023-04-25T09:43:56;1999.90;;;999.90;;
43819;SDS011;67762;52.476;6.046;2023-04-25T09:46:32;1999.90;;;999.90;;
43819;SDS011;67762;52.476;6.046;2023-04-25T09:49:05;1046.43;;;543.47;;
43819;SDS011;67762;52.476;6.046;2023-04-25T09:51:38;179.13;;;168.00;;
43819;SDS011;67762;52.476;6.046;2023-04-25T09:54:05;116.80;;;110.57;;
43819;SDS011;67762;52.476;6.046;2023-04-25T09:56:35;1054.90;;;551.72;;
43819;SDS011;67762;52.476;6.046;2023-04-25T09:59:05;1039.78;;;537.70;;
43819;SDS011;67762;52.476;6.046;2023-04-25T10:01:33;169.05;;;159.57;;
43819;SDS011;67762;52.476;6.046;2023-04-25T10:04:10;123.75;;;117.10;;
43819;SDS011;67762;52.476;6.046;2023-04-25T10:06:51;67.78;;;63.83;;
43819;SDS011;67762;52.476;6.046;2023-04-25T10:09:19;131.95;;;123.90;;
43819;SDS011;67762;52.476;6.046;2023-04-25T10:11:46;87.47;;;82.40;;
43819;SDS011;67762;52.476;6.046;2023-04-25T10:14:13;44.80;;;41.95;;
43819;SDS011;67762;52.476;6.046;2023-04-25T10:16:39;34.65;;;32.88;;
43819;SDS011;67762;52.476;6.046;2023-04-25T10:19:07;86.05;;;81.15;;
43819;SDS011;67762;52.476;6.046;2023-04-25T10:21:32;113.70;;;105.80;;
43819;SDS011;67762;52.476;6.046;2023-04-25T10:23:59;73.47;;;69.40;;
43819;SDS011;67762;52.476;6.046;2023-04-25T10:26:26;63.95;;;60.17;;
43819;SDS011;67762;52.476;6.046;2023-04-25T10:28:56;65.65;;;61.70;;
43819;SDS011;67762;52.476;6.046;2023-04-25T10:31:23;70.20;;;66.28;;
43819;SDS011;67762;52.476;6.046;2023-04-25T10:33:49;104.50;;;98.10;;
43819;SDS011;67762;52.476;6.046;2023-04-25T10:36:17;50.80;;;48.10;;
43819;SDS011;67762;52.476;6.046;2023-04-25T10:38:44;43.70;;;41.05;;
43819;SDS011;67762;52.476;6.046;2023-04-25T10:41:12;84.72;;;79.60;;
43819;SDS011;67762;52.476;6.046;2023-04-25T10:43:43;66.53;;;62.78;;
43819;SDS011;67762;52.476;6.046;2023-04-25T10:46:13;65.47;;;61.15;;
43819;SDS011;67762;52.476;6.046;2023-04-25T10:48:51;30.83;;;29.20;;
43819;SDS011;67762;52.476;6.046;2023-04-25T10:53:57;40.85;;;38.75;;
43819;SDS011;67762;52.476;6.046;2023-04-25T10:56:25;45.83;;;42.80;;
43819;SDS011;67762;52.476;6.046;2023-04-25T10:59:05;36.33;;;34.13;;
43819;SDS011;67762;52.476;6.046;2023-04-25T11:04:06;135.45;;;127.68;;
43819;SDS011;67762;52.476;6.046;2023-04-25T11:06:46;117.95;;;111.63;;
43819;SDS011;67762;52.476;6.046;2023-04-25T11:09:24;390.13;;;365.08;;
43819;SDS011;67762;52.476;6.046;2023-04-25T11:11:57;201.38;;;189.35;;
43819;SDS011;67762;52.476;6.046;2023-04-25T11:14:24;161.02;;;152.05;;
43819;SDS011;67762;52.476;6.046;2023-04-25T11:16:54;642.90;;;384.92;;
43819;SDS011;67762;52.476;6.046;2023-04-25T11:19:22;242.10;;;227.70;;
43819;SDS011;67762;52.476;6.046;2023-04-25T11:21:48;158.00;;;149.18;;
43819;SDS011;67762;52.476;6.046;2023-04-25T11:24:15;173.23;;;162.55;;
43819;SDS011;67762;52.476;6.046;2023-04-25T11:26:42;145.82;;;137.35;;
43819;SDS011;67762;52.476;6.046;2023-04-25T11:29:09;190.90;;;178.00;;
43819;SDS011;67762;52.476;6.046;2023-04-25T11:31:34;145.93;;;138.13;;
43819;SDS011;67762;52.476;6.046;2023-04-25T11:34:00;121.15;;;113.38;;
43819;SDS011;67762;52.476;6.046;2023-04-25T11:36:26;80.57;;;76.47;;
43819;SDS011;67762;52.476;6.046;2023-04-25T11:38:52;1999.90;;;999.90;;
43819;SDS011;67762;52.476;6.046;2023-04-25T11:41:19;1999.90;;;999.90;;
43819;SDS011;67762;52.476;6.046;2023-04-25T11:43:45;1999.90;;;999.90;;
43819;SDS011;67762;52.476;6.046;2023-04-25T11:46:11;1018.97;;;518.03;;
43819;SDS011;67762;52.476;6.046;2023-04-25T11:48:38;1999.90;;;999.90;;
43819;SDS011;67762;52.476;6.046;2023-04-25T11:51:07;1999.90;;;999.90;;
43819;SDS011;67762;52.476;6.046;2023-04-25T11:53:33;645.67;;;385.85;;
43819;SDS011;67762;52.476;6.046;2023-04-25T11:55:59;1999.90;;;999.90;;
43819;SDS011;67762;52.476;6.046;2023-04-25T11:58:25;1999.90;;;999.90;;
43819;SDS011;67762;52.476;6.046;2023-04-25T12:00:51;1999.90;;;999.90;;
43819;SDS011;67762;52.476;6.046;2023-04-25T12:03:17;1999.90;;;999.90;;
43819;SDS011;67762;52.476;6.046;2023-04-25T12:05:44;1999.90;;;999.90;;
43819;SDS011;67762;52.476;6.046;2023-04-25T12:08:11;1999.90;;;999.90;;
43819;SDS011;67762;52.476;6.046;2023-04-25T12:10:38;177.10;;;167.00;;
43819;SDS011;67762;52.476;6.046;2023-04-25T12:13:21;71.88;;;68.00;;
43819;SDS011;67762;52.476;6.046;2023-04-25T12:15:50;173.35;;;163.07;;
43819;SDS011;67762;52.476;6.046;2023-04-25T12:18:19;151.05;;;140.88;;
43819;SDS011;67762;52.476;6.046;2023-04-25T12:20:47;60.83;;;57.60;;
43819;SDS011;67762;52.476;6.046;2023-04-25T12:23:12;62.55;;;57.25;;
43819;SDS011;67762;52.476;6.046;2023-04-25T12:25:39;97.55;;;91.60;;
43819;SDS011;67762;52.476;6.046;2023-04-25T12:28:19;51.58;;;48.72;;
43819;SDS011;67762;52.476;6.046;2023-04-25T12:31:07;231.52;;;213.00;;
43819;SDS011;67762;52.476;6.046;2023-04-25T12:33:34;113.82;;;107.28;;
43819;SDS011;67762;52.476;6.046;2023-04-25T12:36:02;93.97;;;88.20;;
43819;SDS011;67762;52.476;6.046;2023-04-25T12:38:37;73.57;;;69.43;;
43819;SDS011;67762;52.476;6.046;2023-04-25T12:41:04;87.88;;;82.85;;
43819;SDS011;67762;52.476;6.046;2023-04-25T12:43:30;52.17;;;49.30;;
43819;SDS011;67762;52.476;6.046;2023-04-25T12:45:56;43.03;;;40.83;;
43819;SDS011;67762;52.476;6.046;2023-04-25T12:48:22;64.20;;;59.47;;
43819;SDS011;67762;52.476;6.046;2023-04-25T12:50:48;48.33;;;45.63;;
43819;SDS011;67762;52.476;6.046;2023-04-25T12:53:16;126.95;;;120.07;;
43819;SDS011;67762;52.476;6.046;2023-04-25T12:55:42;39.70;;;37.40;;
43819;SDS011;67762;52.476;6.046;2023-04-25T12:58:11;35.95;;;33.65;;
43819;SDS011;67762;52.476;6.046;2023-04-25T13:00:36;72.32;;;68.43;;
43819;SDS011;67762;52.476;6.046;2023-04-25T13:03:02;31.10;;;29.40;;
43819;SDS011;67762;52.476;6.046;2023-04-25T13:05:30;37.47;;;35.25;;
43819;SDS011;67762;52.476;6.046;2023-04-25T13:07:56;43.78;;;41.25;;
43819;SDS011;67762;52.476;6.046;2023-04-25T13:10:22;36.17;;;34.05;;
43819;SDS011;67762;52.476;6.046;2023-04-25T13:12:48;49.15;;;46.13;;
43819;SDS011;67762;52.476;6.046;2023-04-25T13:15:13;43.42;;;40.95;;
43819;SDS011;67762;52.476;6.046;2023-04-25T13:17:41;78.28;;;73.82;;
43819;SDS011;67762;52.476;6.046;2023-04-25T13:20:07;68.13;;;63.78;;
43819;SDS011;67762;52.476;6.046;2023-04-25T13:22:38;55.92;;;51.42;;
43819;SDS011;67762;52.476;6.046;2023-04-25T13:25:05;31.80;;;29.83;;
43819;SDS011;67762;52.476;6.046;2023-04-25T13:27:33;39.50;;;37.03;;
43819;SDS011;67762;52.476;6.046;2023-04-25T13:30:00;37.67;;;35.10;;
43819;SDS011;67762;52.476;6.046;2023-04-25T13:32:26;35.35;;;32.90;;
43819;SDS011;67762;52.476;6.046;2023-04-25T13:34:52;54.83;;;51.75;;
43819;SDS011;67762;52.476;6.046;2023-04-25T13:37:18;49.85;;;46.78;;
43819;SDS011;67762;52.476;6.046;2023-04-25T13:39:44;35.17;;;32.83;;
43819;SDS011;67762;52.476;6.046;2023-04-25T13:42:10;35.03;;;32.95;;
43819;SDS011;67762;52.476;6.046;2023-04-25T13:44:36;35.83;;;33.88;;
43819;SDS011;67762;52.476;6.046;2023-04-25T13:47:02;36.53;;;33.17;;
43819;SDS011;67762;52.476;6.046;2023-04-25T13:49:28;36.00;;;33.90;;
43819;SDS011;67762;52.476;6.046;2023-04-25T13:51:54;36.28;;;33.85;;
43819;SDS011;67762;52.476;6.046;2023-04-25T13:54:20;31.48;;;29.67;;
43819;SDS011;67762;52.476;6.046;2023-04-25T13:56:46;31.17;;;29.25;;
43819;SDS011;67762;52.476;6.046;2023-04-25T13:59:11;26.35;;;24.77;;
43819;SDS011;67762;52.476;6.046;2023-04-25T14:01:38;26.80;;;25.13;;
43819;SDS011;67762;52.476;6.046;2023-04-25T14:04:11;27.02;;;25.52;;
43819;SDS011;67762;52.476;6.046;2023-04-25T14:06:49;28.20;;;26.50;;
43819;SDS011;67762;52.476;6.046;2023-04-25T14:09:16;33.05;;;30.85;;
43819;SDS011;67762;52.476;6.046;2023-04-25T14:11:42;30.58;;;28.50;;
43819;SDS011;67762;52.476;6.046;2023-04-25T14:14:07;32.83;;;30.65;;
43819;SDS011;67762;52.476;6.046;2023-04-25T14:16:34;37.67;;;35.67;;